createdAt,value
2022-11-05T00:05:52.581Z,6.5
2022-11-05T00:11:05.729Z,6.4
2022-11-05T00:16:14.670Z,6.5
2022-11-05T00:37:30.583Z,6.5
2022-11-05T00:42:39.811Z,6.5
2022-11-05T00:47:51.467Z,6.5
2022-11-05T00:53:03.901Z,6.4
2022-11-05T00:58:17.549Z,6.4
2022-11-05T01:08:50.170Z,6.4
2022-11-05T01:19:21.085Z,6.4
2022-11-05T01:35:19.130Z,6.4
2022-11-05T01:45:52.080Z,6.4
2022-11-05T01:51:03.235Z,6.5
2022-11-05T01:56:14.916Z,6.4
2022-11-05T02:06:45.649Z,6.1
2022-11-05T02:17:17.624Z,5.9
2022-11-05T02:22:29.158Z,5.8
2022-11-05T02:27:43.038Z,5.8
2022-11-05T02:32:54.518Z,5.6
2022-11-05T02:38:06.179Z,5.5
2022-11-05T02:48:37.490Z,5.4
2022-11-05T02:53:49.134Z,5.4
2022-11-05T02:59:02.422Z,5.4
2022-11-05T03:20:16.848Z,5.4
2022-11-05T03:30:48.048Z,5.2
2022-11-05T03:46:44.611Z,5.2
2022-11-05T03:51:53.660Z,5.1
2022-11-05T03:57:05.510Z,5.2
2022-11-05T04:07:40.102Z,5.2
2022-11-05T04:23:33.438Z,5.1
2022-11-05T04:28:45.108Z,5.1
2022-11-05T04:33:55.274Z,5.1
2022-11-05T04:49:51.073Z,5.1
2022-11-05T04:55:02.790Z,5.1
2022-11-05T05:00:18.248Z,5.1
2022-11-05T05:21:31.518Z,5.1
2022-11-05T05:32:05.177Z,5.1
2022-11-05T05:42:43.890Z,5.2
2022-11-05T05:47:50.646Z,5.2
2022-11-05T06:09:04.414Z,5.2
2022-11-05T06:19:36.147Z,5.2
2022-11-05T06:30:10.259Z,5.2
2022-11-05T06:35:18.922Z,5.1
2022-11-05T06:40:30.433Z,5.1
2022-11-05T06:51:01.450Z,5.2
2022-11-05T07:06:56.737Z,5.2
2022-11-05T07:17:30.469Z,5.2
2022-11-05T07:22:42.422Z,5.2
2022-11-05T07:33:17.841Z,5.2
2022-11-05T07:43:52.106Z,5.3
2022-11-05T08:05:09.954Z,5.6
2022-11-05T08:26:26.276Z,5.8
2022-11-05T08:42:21.594Z,6
2022-11-05T08:52:55.104Z,5.9
2022-11-05T08:58:07.585Z,6
2022-11-05T09:03:19.036Z,6.1
2022-11-05T09:08:30.255Z,6
2022-11-05T09:13:45.454Z,6
2022-11-05T09:18:57.680Z,5.7
2022-11-05T09:24:08.970Z,5.8
2022-11-05T09:29:20.589Z,5.7
2022-11-05T09:34:32.550Z,5.5
2022-11-05T09:39:43.927Z,5.4
2022-11-05T09:44:55.138Z,5.2
2022-11-05T09:50:06.548Z,5.2
2022-11-05T09:55:23.039Z,5.2
2022-11-05T10:00:29.140Z,5.2
2022-11-05T10:05:42.198Z,5.3
2022-11-05T10:10:52.910Z,5.3
2022-11-05T10:22:07.577Z,5.3
2022-11-05T10:26:38.385Z,5.4
2022-11-05T10:37:12.126Z,5.5
2022-11-05T10:42:23.309Z,5.7
2022-11-05T10:58:19.549Z,6.5
2022-11-05T11:03:31.053Z,6.6
2022-11-05T11:14:03.672Z,6.8
2022-11-05T11:19:15.494Z,6.7
2022-11-05T11:29:50.032Z,6.7
2022-11-05T11:34:59.479Z,6.6
2022-11-05T11:40:10.590Z,6.6
2022-11-05T11:45:28.510Z,6.5
2022-11-05T11:50:34.560Z,6.4
2022-11-05T11:55:45.804Z,6.4
2022-11-05T12:05:09.859Z,6.4
2022-11-05T12:26:15.523Z,6.6
2022-11-05T12:31:27.712Z,6.8
2022-11-05T12:36:40.876Z,6.9
2022-11-05T12:41:51.431Z,7.1
2022-11-05T12:47:03.173Z,6.9
2022-11-05T12:52:14.982Z,7
2022-11-05T12:57:40.337Z,7
2022-11-05T13:08:13.025Z,7
2022-11-05T13:13:23.786Z,7.1
2022-11-05T13:18:35.143Z,7
2022-11-05T13:29:06.630Z,6.8
2022-11-05T13:34:18.044Z,6.8
2022-11-05T13:50:13.544Z,6.7
2022-11-05T13:55:30.608Z,6.7
2022-11-05T14:06:02.557Z,6.8
2022-11-05T14:11:12.602Z,6.8
2022-11-05T14:16:23.240Z,6.8
2022-11-05T14:21:34.220Z,6.8
2022-11-05T14:37:26.395Z,6.9
2022-11-05T14:42:39.048Z,6.9
2022-11-05T15:03:55.452Z,6.8
2022-11-05T15:09:07.407Z,6.8
2022-11-05T15:14:17.510Z,6.8
2022-11-05T15:19:29.393Z,6.7
2022-11-05T15:30:01.502Z,6.4
2022-11-05T15:35:13.439Z,6.2
2022-11-05T15:40:24.292Z,6.2
2022-11-05T15:45:39.774Z,6.2
2022-11-05T15:50:54.931Z,6.2
2022-11-05T15:56:06.610Z,5.9
2022-11-05T16:01:18.990Z,5.8
2022-11-05T16:06:30.549Z,5.8
2022-11-05T16:11:42.962Z,5.8
2022-11-05T16:16:58.837Z,5.8
2022-11-05T16:32:52.523Z,5.7
2022-11-05T16:38:02.885Z,5.8
2022-11-05T16:43:14.129Z,5.8
2022-11-05T16:48:24.301Z,5.7
2022-11-05T16:53:34.083Z,5.6
2022-11-05T16:58:44.760Z,5.7
2022-11-05T17:03:56.692Z,5.7
2022-11-05T17:09:10.353Z,5.7
2022-11-05T17:19:43.878Z,5.7
2022-11-05T17:25:00.169Z,5.7
2022-11-05T17:30:10.596Z,5.8
2022-11-05T17:35:22.528Z,5.8
2022-11-05T17:46:05.043Z,5.8
2022-11-05T17:51:16.525Z,5.8
2022-11-05T17:56:44.578Z,5.8
2022-11-05T18:01:40.247Z,6
2022-11-05T18:12:11.591Z,6.2
2022-11-05T18:17:23.457Z,6
2022-11-05T18:22:35.451Z,5.9
2022-11-05T18:27:44.084Z,5.8
2022-11-05T18:32:56.238Z,5.8
2022-11-05T18:43:27.659Z,5.8
2022-11-05T18:48:37.195Z,5.8
2022-11-05T18:53:47.577Z,5.7
2022-11-05T18:59:39.839Z,5.8
2022-11-05T19:04:15.876Z,5.8
2022-11-05T19:09:32.334Z,5.8
2022-11-05T19:14:44.375Z,5.7
2022-11-05T19:20:01.829Z,5.7
2022-11-05T19:25:18.348Z,5.7
2022-11-05T19:30:30.562Z,5.8
2022-11-05T19:35:42.464Z,5.7
2022-11-05T19:40:56.137Z,5.6
2022-11-05T19:46:06.464Z,5.7
2022-11-05T19:56:40.272Z,5.7
2022-11-05T20:01:56.831Z,5.7
2022-11-05T20:07:11.031Z,5.7
2022-11-05T20:17:45.337Z,5.5
2022-11-05T20:28:18.481Z,5.4
2022-11-05T20:44:18.885Z,5.4
2022-11-05T20:49:29.396Z,5.4
2022-11-05T20:54:43.885Z,5.4
2022-11-05T20:59:56.968Z,5.4
2022-11-05T21:05:12.280Z,5.4
2022-11-05T21:10:25.271Z,5.2
2022-11-05T21:15:40.077Z,5.2
2022-11-05T21:20:51.918Z,5
2022-11-05T21:26:04.772Z,4.9
2022-11-05T21:31:18.295Z,4.9
2022-11-05T21:41:56.310Z,4.9
2022-11-05T21:47:08.741Z,4.9
2022-11-05T22:08:20.116Z,4.9
2022-11-05T22:13:30.470Z,4.6
2022-11-05T22:18:40.787Z,4.5
2022-11-05T22:23:56.338Z,4.5
2022-11-05T22:29:08.681Z,4.4
2022-11-05T22:45:08.805Z,4.4
2022-11-05T22:50:20.820Z,4.5
2022-11-05T22:55:32.269Z,4.5
2022-11-05T23:00:45.170Z,4.6
2022-11-05T23:06:02.907Z,4.6
2022-11-05T23:11:08.214Z,4.5
2022-11-05T23:16:23.734Z,4.5
2022-11-05T23:21:36.112Z,4.3
2022-11-05T23:26:48.148Z,4.3
2022-11-05T23:32:03.428Z,4.3
2022-11-05T23:37:19.847Z,4.3
2022-11-05T23:42:36.324Z,4.3
2022-11-05T23:47:46.168Z,4.1
2022-11-05T23:52:57.668Z,4.2
2022-11-05T23:58:15.213Z,4.2
